createdAt,value
2023-04-16T00:00:59.735Z,99253.84
2023-04-16T00:03:28.048Z,99250.13
2023-04-16T00:05:56.883Z,99244.75
2023-04-16T00:08:25.540Z,99241.03
2023-04-16T00:10:55.686Z,99238.94
2023-04-16T00:13:23.652Z,99242.91
2023-04-16T00:15:51.574Z,99242.72
2023-04-16T00:18:21.180Z,99231.94
2023-04-16T00:20:49.360Z,99238.19
2023-04-16T00:23:17.372Z,99242.13
2023-04-16T00:25:45.326Z,99240.69
2023-04-16T00:28:14.687Z,99229.94
2023-04-16T00:30:42.719Z,99230.56
2023-04-16T00:33:10.763Z,99237.84
2023-04-16T00:35:38.722Z,99231.84
2023-04-16T00:38:06.655Z,99240.34
2023-04-16T00:40:34.595Z,99234.13
2023-04-16T00:43:02.573Z,99234.94
2023-04-16T00:45:31.875Z,99229.16
2023-04-16T00:48:00.628Z,99233.31
2023-04-16T00:50:28.704Z,99236.00
2023-04-16T00:52:56.680Z,99233.31
2023-04-16T00:55:24.709Z,99227.88
2023-04-16T00:57:52.683Z,99230.38
2023-04-16T01:00:21.652Z,99236.16
2023-04-16T01:02:51.096Z,99230.38
2023-04-16T01:05:19.269Z,99229.94
2023-04-16T01:07:47.236Z,99228.06
2023-04-16T01:10:15.207Z,99231.22
2023-04-16T01:12:43.165Z,99237.44
2023-04-16T01:15:11.953Z,99226.66
2023-04-16T01:17:40.041Z,99225.00
2023-04-16T01:20:10.156Z,99221.22
2023-04-16T01:22:39.498Z,99224.53
2023-04-16T01:25:07.803Z,99228.28
2023-04-16T01:27:37.607Z,99227.00
2023-04-16T01:30:07.014Z,99227.81
2023-04-16T01:32:34.972Z,99224.50
2023-04-16T01:35:02.970Z,99229.44
2023-04-16T01:37:31.030Z,99234.44
2023-04-16T01:40:00.435Z,99224.03
2023-04-16T01:42:28.419Z,99229.81
2023-04-16T01:44:56.364Z,99230.25
2023-04-16T01:47:24.398Z,99228.97
2023-04-16T01:49:52.432Z,99229.97
2023-04-16T01:52:20.339Z,99231.41
2023-04-16T01:54:48.279Z,99230.53
2023-04-16T01:57:17.589Z,99233.66
2023-04-16T01:59:45.496Z,99227.59
2023-04-16T02:02:14.650Z,99232.56
2023-04-16T02:04:43.283Z,99232.94
2023-04-16T02:07:11.286Z,99239.13
2023-04-16T02:09:39.656Z,99230.81
2023-04-16T02:12:07.780Z,99227.91
2023-04-16T02:14:37.184Z,99234.06
2023-04-16T02:17:05.164Z,99224.09
2023-04-16T02:19:33.134Z,99235.66
2023-04-16T02:22:01.740Z,99230.00
2023-04-16T02:24:29.649Z,99223.56
2023-04-16T02:26:58.269Z,99232.03
2023-04-16T02:29:26.248Z,99235.88
2023-04-16T02:31:55.599Z,99224.72
2023-04-16T02:34:23.599Z,99225.91
2023-04-16T02:36:51.537Z,99220.09
2023-04-16T02:39:20.032Z,99226.13
2023-04-16T02:41:47.998Z,99229.19
2023-04-16T02:44:16.012Z,99217.56
2023-04-16T02:46:43.941Z,99220.00
2023-04-16T02:49:13.267Z,99230.69
2023-04-16T02:51:41.245Z,99222.38
2023-04-16T02:54:09.194Z,99215.09
2023-04-16T02:56:37.164Z,99222.72
2023-04-16T02:59:05.238Z,99227.63
2023-04-16T03:01:33.255Z,99231.78
2023-04-16T03:04:01.328Z,99233.47
2023-04-16T03:06:31.482Z,99240.09
2023-04-16T03:08:59.460Z,99237.69
2023-04-16T03:11:27.404Z,99241.84
2023-04-16T03:13:55.506Z,99245.94
2023-04-16T03:16:23.564Z,99242.72
2023-04-16T03:18:51.561Z,99242.16
2023-04-16T03:21:19.571Z,99245.47
2023-04-16T03:23:49.055Z,99241.47
2023-04-16T03:26:17.014Z,99246.72
2023-04-16T03:28:44.949Z,99251.25
2023-04-16T03:31:13.135Z,99245.69
2023-04-16T03:33:41.340Z,99241.75
2023-04-16T03:36:10.052Z,99238.19
2023-04-16T03:38:37.983Z,99240.72
2023-04-16T03:41:07.429Z,99244.56
2023-04-16T03:43:35.403Z,99245.06
2023-04-16T03:46:03.402Z,99234.13
2023-04-16T03:48:31.355Z,99233.59
2023-04-16T03:50:59.305Z,99244.84
2023-04-16T03:53:27.228Z,99236.19
2023-04-16T03:55:55.416Z,99242.66
2023-04-16T03:58:24.750Z,99249.09
2023-04-16T04:00:54.935Z,99240.47
2023-04-16T04:03:23.081Z,99243.38
2023-04-16T04:05:51.312Z,99243.44
2023-04-16T04:08:19.299Z,99244.13
2023-04-16T04:10:47.201Z,99239.84
2023-04-16T04:13:15.170Z,99243.63
2023-04-16T04:15:45.170Z,99241.59
2023-04-16T04:18:13.091Z,99241.22
2023-04-16T04:20:41.331Z,99242.44
2023-04-16T04:23:09.298Z,99243.69
2023-04-16T04:25:37.239Z,99248.47
2023-04-16T04:28:05.441Z,99250.25
2023-04-16T04:30:33.589Z,99251.03
2023-04-16T04:33:02.991Z,99244.09
2023-04-16T04:35:30.966Z,99256.28
2023-04-16T04:37:58.932Z,99249.88
2023-04-16T04:40:26.922Z,99257.97
2023-04-16T04:42:55.091Z,99255.75
2023-04-16T04:45:25.503Z,99257.38
2023-04-16T04:47:53.700Z,99256.72
2023-04-16T04:50:23.091Z,99264.03
2023-04-16T04:52:51.065Z,99268.16
2023-04-16T04:55:19.265Z,99268.53
2023-04-16T04:57:47.157Z,99269.44
2023-04-16T05:00:15.206Z,99266.56
2023-04-16T05:02:43.343Z,99265.81
2023-04-16T05:05:11.453Z,99270.22
2023-04-16T05:07:40.762Z,99258.72
2023-04-16T05:10:10.221Z,99256.31
2023-04-16T05:12:38.187Z,99263.00
2023-04-16T05:15:06.804Z,99258.34
2023-04-16T05:17:34.776Z,99264.97
2023-04-16T05:20:02.777Z,99266.84
2023-04-16T05:22:30.694Z,99270.81
2023-04-16T05:25:00.049Z,99268.25
2023-04-16T05:27:28.024Z,99276.97
2023-04-16T05:29:55.992Z,99272.75
2023-04-16T05:32:26.906Z,99284.34
2023-04-16T05:34:55.051Z,99279.66
2023-04-16T05:37:23.005Z,99283.78
2023-04-16T05:39:51.234Z,99287.66
2023-04-16T05:42:20.577Z,99277.25
2023-04-16T05:44:48.531Z,99279.84
2023-04-16T05:47:17.558Z,99269.56
2023-04-16T05:49:45.520Z,99279.03
2023-04-16T05:52:13.479Z,99280.31
2023-04-16T05:54:41.440Z,99278.53
2023-04-16T05:57:09.432Z,99285.94
2023-04-16T05:59:38.730Z,99281.03
2023-04-16T06:02:06.748Z,99279.75
2023-04-16T06:04:35.779Z,99275.06
2023-04-16T06:07:03.760Z,99272.06
2023-04-16T06:09:31.749Z,99274.06
2023-04-16T06:11:59.719Z,99270.41
2023-04-16T06:14:27.665Z,99272.31
2023-04-16T06:16:57.041Z,99266.78
2023-04-16T06:19:25.094Z,99269.94
2023-04-16T06:21:54.014Z,99267.34
2023-04-16T06:24:22.106Z,99271.25
2023-04-16T06:26:50.077Z,99261.97
2023-04-16T06:29:18.015Z,99262.09
2023-04-16T06:31:45.972Z,99270.91
2023-04-16T06:34:15.346Z,99273.13
2023-04-16T06:36:43.264Z,99265.38
2023-04-16T06:39:11.550Z,99270.56
2023-04-16T06:41:39.729Z,99269.84
2023-04-16T06:44:07.689Z,99275.31
2023-04-16T06:46:35.826Z,99272.72
2023-04-16T06:49:03.785Z,99279.22
2023-04-16T06:51:33.107Z,99272.78
2023-04-16T06:54:01.147Z,99282.19
2023-04-16T06:56:30.323Z,99272.97
2023-04-16T06:58:59.082Z,99282.22
2023-04-16T07:01:27.125Z,99278.69
2023-04-16T07:03:55.778Z,99273.34
2023-04-16T07:06:23.895Z,99277.66
2023-04-16T07:08:53.192Z,99280.25
2023-04-16T07:11:21.200Z,99290.00
2023-04-16T07:13:50.166Z,99278.44
2023-04-16T07:16:18.940Z,99286.13
2023-04-16T07:18:46.958Z,99291.28
2023-04-16T07:21:14.899Z,99287.00
2023-04-16T07:23:42.937Z,99284.78
2023-04-16T07:26:12.688Z,99279.19
2023-04-16T07:28:40.687Z,99275.56
2023-04-16T07:31:09.369Z,99287.97
2023-04-16T07:33:37.305Z,99289.44
2023-04-16T07:36:05.667Z,99283.88
2023-04-16T07:38:34.727Z,99288.00
2023-04-16T07:41:02.610Z,99281.81
2023-04-16T07:43:31.910Z,99285.31
2023-04-16T07:45:59.859Z,99285.41
2023-04-16T07:48:27.976Z,99287.63
2023-04-16T07:50:55.908Z,99282.31
2023-04-16T07:53:23.881Z,99276.56
2023-04-16T07:55:51.853Z,99280.06
2023-04-16T07:58:19.767Z,99277.25
2023-04-16T08:00:50.858Z,99276.03
2023-04-16T08:03:19.150Z,99269.56
2023-04-16T08:05:47.177Z,99265.19
2023-04-16T08:08:15.133Z,99269.00
2023-04-16T08:10:43.100Z,99264.38
2023-04-16T08:13:11.117Z,99273.69
2023-04-16T08:15:39.110Z,99266.75
2023-04-16T08:18:12.960Z,99273.34
2023-04-16T08:20:41.018Z,99266.84
2023-04-16T08:23:09.028Z,99265.47
2023-04-16T08:25:37.027Z,99262.97
2023-04-16T08:28:05.239Z,99261.63
2023-04-16T08:30:33.169Z,99263.53
2023-04-16T08:33:01.482Z,99255.03
2023-04-16T08:35:30.832Z,99254.19
2023-04-16T08:38:02.196Z,99251.97
2023-04-16T08:40:30.700Z,99256.25
2023-04-16T08:43:00.188Z,99248.59
2023-04-16T08:45:28.237Z,99254.66
2023-04-16T08:47:56.612Z,99252.47
2023-04-16T08:50:25.219Z,99240.91
2023-04-16T08:52:54.953Z,99244.69
2023-04-16T08:55:24.576Z,99240.97
2023-04-16T08:57:56.292Z,99236.16
2023-04-16T09:00:24.328Z,99241.16
2023-04-16T09:02:52.759Z,99237.03
2023-04-16T09:05:25.471Z,99244.53
2023-04-16T09:07:55.068Z,99237.56
2023-04-16T09:10:23.212Z,99240.59
2023-04-16T09:12:51.306Z,99228.50
2023-04-16T09:15:19.204Z,99237.13
2023-04-16T09:17:47.150Z,99233.31
2023-04-16T09:20:16.087Z,99230.66
2023-04-16T09:22:44.230Z,99233.78
2023-04-16T09:25:13.528Z,99226.06
2023-04-16T09:27:41.510Z,99237.28
2023-04-16T09:30:23.195Z,99240.03
2023-04-16T09:32:51.385Z,99237.81
2023-04-16T09:35:19.779Z,99242.72
2023-04-16T09:37:56.566Z,99241.78
2023-04-16T09:40:27.771Z,99238.88
2023-04-16T09:42:58.432Z,99235.78
2023-04-16T09:45:26.399Z,99235.91
2023-04-16T09:47:54.375Z,99236.19
2023-04-16T09:50:22.386Z,99232.59
2023-04-16T09:52:51.733Z,99240.66
2023-04-16T09:55:24.134Z,99243.47
2023-04-16T09:57:59.511Z,99232.56
2023-04-16T10:00:27.437Z,99237.47
2023-04-16T10:03:04.979Z,99228.09
2023-04-16T10:05:33.031Z,99227.63
2023-04-16T10:08:01.698Z,99219.66
2023-04-16T10:10:29.774Z,99223.31
2023-04-16T10:12:59.133Z,99224.50
2023-04-16T10:15:27.077Z,99227.25
2023-04-16T10:17:55.256Z,99217.91
2023-04-16T10:20:23.756Z,99209.53
2023-04-16T10:22:51.692Z,99210.78
2023-04-16T10:25:19.725Z,99208.81
2023-04-16T10:27:47.699Z,99207.41
2023-04-16T10:30:17.080Z,99202.31
2023-04-16T10:32:45.476Z,99210.16
2023-04-16T10:35:16.754Z,99207.34
2023-04-16T10:37:45.380Z,99200.16
2023-04-16T10:40:31.221Z,99201.44
2023-04-16T10:42:59.343Z,99204.47
2023-04-16T10:45:33.169Z,99209.59
2023-04-16T10:48:01.221Z,99200.34
2023-04-16T10:50:36.149Z,99186.72
2023-04-16T10:53:25.431Z,99197.63
2023-04-16T10:56:00.290Z,99190.13
2023-04-16T10:58:28.723Z,99200.41
2023-04-16T11:01:00.233Z,99202.88
2023-04-16T11:03:32.244Z,99186.75
2023-04-16T11:06:12.550Z,99199.16
2023-04-16T11:08:53.914Z,99193.78
2023-04-16T11:11:23.364Z,99194.13
2023-04-16T11:13:51.279Z,99195.13
2023-04-16T11:16:20.604Z,99196.06
2023-04-16T11:18:51.333Z,99195.44
2023-04-16T11:21:19.840Z,99197.38
2023-04-16T11:23:49.448Z,99189.66
2023-04-16T11:26:27.468Z,99183.59
2023-04-16T11:28:56.280Z,99184.22
2023-04-16T11:31:27.332Z,99185.31
2023-04-16T11:33:57.282Z,99188.06
2023-04-16T11:36:27.481Z,99190.31
2023-04-16T11:39:02.542Z,99185.56
2023-04-16T11:41:30.539Z,99184.03
2023-04-16T11:43:58.526Z,99168.69
2023-04-16T11:46:40.722Z,99166.69
2023-04-16T11:49:09.002Z,99156.91
2023-04-16T11:51:41.234Z,99170.75
2023-04-16T11:54:11.862Z,99164.44
2023-04-16T11:56:40.410Z,99158.41
2023-04-16T11:59:11.991Z,99162.16
2023-04-16T12:01:42.318Z,99159.06
2023-04-16T12:04:10.572Z,99161.06
2023-04-16T12:06:38.727Z,99151.19
2023-04-16T12:09:24.334Z,99152.81
2023-04-16T12:11:52.412Z,99150.66
2023-04-16T12:14:20.449Z,99143.81
2023-04-16T12:16:49.813Z,99143.06
2023-04-16T12:19:17.791Z,99127.84
2023-04-16T12:21:46.350Z,99138.31
2023-04-16T12:24:15.416Z,99129.53
2023-04-16T12:26:43.982Z,99128.16
2023-04-16T12:29:19.521Z,99124.06
2023-04-16T12:31:49.052Z,99114.44
2023-04-16T12:34:17.364Z,99114.72
2023-04-16T12:36:45.927Z,99119.31
2023-04-16T12:39:14.789Z,99114.59
2023-04-16T12:41:43.711Z,99115.72
2023-04-16T12:44:13.349Z,99118.50
2023-04-16T12:46:41.784Z,99112.97
2023-04-16T12:49:11.610Z,99104.97
2023-04-16T12:51:39.882Z,99107.22
2023-04-16T12:54:08.516Z,99100.06
2023-04-16T12:56:36.825Z,99105.09
2023-04-16T12:59:04.994Z,99105.31
2023-04-16T13:01:36.150Z,99098.88
2023-04-16T13:04:04.283Z,99103.59
2023-04-16T13:06:33.892Z,99087.00
2023-04-16T13:09:01.893Z,99091.31
2023-04-16T13:11:29.864Z,99089.25
2023-04-16T13:13:58.252Z,99070.72
2023-04-16T13:16:26.347Z,99068.66
2023-04-16T13:18:54.441Z,99071.41
2023-04-16T13:21:23.790Z,99073.66
2023-04-16T13:23:54.057Z,99069.91
2023-04-16T13:26:22.179Z,99063.31
2023-04-16T13:28:50.169Z,99059.53
2023-04-16T13:31:20.578Z,99056.81
2023-04-16T13:33:48.655Z,99055.50
2023-04-16T13:36:16.610Z,99054.09
2023-04-16T13:38:44.638Z,99049.16
2023-04-16T13:41:13.946Z,99042.59
2023-04-16T13:43:41.971Z,99039.06
2023-04-16T13:46:09.914Z,99030.56
2023-04-16T13:48:37.912Z,99027.81
2023-04-16T13:51:06.078Z,99048.09
2023-04-16T13:53:34.062Z,99044.78
2023-04-16T13:56:03.717Z,99045.09
2023-04-16T13:58:33.020Z,99043.72
2023-04-16T14:01:01.264Z,99038.78
2023-04-16T14:03:29.388Z,99048.91
2023-04-16T14:05:57.400Z,99039.84
2023-04-16T14:08:25.441Z,99052.13
2023-04-16T14:10:55.592Z,99044.47
2023-04-16T14:13:23.675Z,99051.34
2023-04-16T14:15:54.603Z,99050.22
2023-04-16T14:18:22.552Z,99067.22
2023-04-16T14:20:50.732Z,99059.03
2023-04-16T14:23:18.782Z,99064.47
2023-04-16T14:25:46.729Z,99054.34
2023-04-16T14:28:15.720Z,99057.66
2023-04-16T14:30:43.887Z,99063.97
2023-04-16T14:33:13.265Z,99064.50
2023-04-16T14:35:41.230Z,99064.53
2023-04-16T14:38:09.260Z,99073.28
2023-04-16T14:40:37.255Z,99068.91
2023-04-16T14:43:05.383Z,99070.28
2023-04-16T14:45:33.386Z,99069.19
2023-04-16T14:48:01.463Z,99073.84
2023-04-16T14:50:30.950Z,99086.97
2023-04-16T14:52:58.942Z,99093.56
2023-04-16T14:55:26.927Z,99080.41
2023-04-16T14:57:54.896Z,99080.84
2023-04-16T15:00:23.691Z,99083.06
2023-04-16T15:02:51.906Z,99078.09
2023-04-16T15:05:19.978Z,99073.63
2023-04-16T15:07:49.314Z,99081.84
2023-04-16T15:10:17.419Z,99072.94
2023-04-16T15:12:45.430Z,99082.19
2023-04-16T15:15:13.387Z,99079.31
2023-04-16T15:17:41.619Z,99084.72
2023-04-16T15:20:10.691Z,99083.03
2023-04-16T15:22:38.638Z,99080.25
2023-04-16T15:25:08.949Z,99085.19
2023-04-16T15:27:36.957Z,99090.09
2023-04-16T15:30:06.523Z,99083.50
2023-04-16T15:32:34.595Z,99090.84
2023-04-16T15:35:03.579Z,99090.56
2023-04-16T15:37:31.524Z,99087.94
2023-04-16T15:39:59.486Z,99083.84
2023-04-16T15:42:28.785Z,99090.31
2023-04-16T15:44:56.708Z,99083.78
2023-04-16T15:47:24.667Z,99074.97
2023-04-16T15:49:52.623Z,99075.81
2023-04-16T15:52:21.055Z,99082.00
2023-04-16T15:54:49.001Z,99078.59
2023-04-16T15:57:16.964Z,99082.31
2023-04-16T15:59:59.541Z,99092.22
2023-04-16T16:02:34.675Z,99075.41
2023-04-16T16:05:03.349Z,99085.38
2023-04-16T16:07:31.263Z,99085.22
2023-04-16T16:09:59.260Z,99084.63
2023-04-16T16:12:27.357Z,99076.88
2023-04-16T16:14:56.832Z,99081.09
2023-04-16T16:17:24.821Z,99081.31
2023-04-16T16:19:52.839Z,99084.00
2023-04-16T16:22:23.669Z,99093.59
2023-04-16T16:24:52.060Z,99088.63
2023-04-16T16:27:20.027Z,99091.97
2023-04-16T16:29:48.023Z,99089.28
2023-04-16T16:32:17.580Z,99087.47
2023-04-16T16:34:45.692Z,99091.03
2023-04-16T16:37:13.657Z,99098.19
2023-04-16T16:39:41.647Z,99087.66
2023-04-16T16:42:09.725Z,99103.81
2023-04-16T16:44:38.003Z,99097.00
2023-04-16T16:47:06.585Z,99108.22
2023-04-16T16:49:36.022Z,99106.41
2023-04-16T16:52:03.949Z,99108.84
2023-04-16T16:54:32.028Z,99112.28
2023-04-16T16:57:00.006Z,99099.91
2023-04-16T16:59:27.940Z,99111.16
2023-04-16T17:01:55.927Z,99118.63
2023-04-16T17:04:24.088Z,99115.56
2023-04-16T17:06:53.565Z,99115.94
2023-04-16T17:09:21.538Z,99113.59
2023-04-16T17:11:49.484Z,99126.47
2023-04-16T17:14:17.440Z,99124.00
2023-04-16T17:16:46.766Z,99112.19
2023-04-16T17:19:15.416Z,99135.19
2023-04-16T17:21:43.337Z,99131.97
2023-04-16T17:24:12.815Z,99133.38
2023-04-16T17:26:41.251Z,99139.31
2023-04-16T17:29:09.262Z,99138.94
2023-04-16T17:31:37.311Z,99147.28
2023-04-16T17:34:06.367Z,99143.19
2023-04-16T17:36:34.339Z,99147.91
2023-04-16T17:39:02.291Z,99157.69
2023-04-16T17:41:31.719Z,99169.38
2023-04-16T17:43:59.695Z,99158.91
2023-04-16T17:46:27.674Z,99166.88
2023-04-16T17:48:55.656Z,99152.84
2023-04-16T17:51:23.582Z,99166.28
2023-04-16T17:53:51.946Z,99160.34
2023-04-16T17:56:19.862Z,99163.16
2023-04-16T17:58:49.154Z,99177.41
2023-04-16T18:01:17.111Z,99174.56
2023-04-16T18:03:45.454Z,99183.47
2023-04-16T18:06:13.484Z,99188.16
2023-04-16T18:08:41.445Z,99193.66
2023-04-16T18:11:09.354Z,99191.19
2023-04-16T18:13:37.310Z,99191.63
2023-04-16T18:16:07.659Z,99197.53
2023-04-16T18:18:35.769Z,99203.38
2023-04-16T18:21:03.692Z,99212.56
2023-04-16T18:23:31.674Z,99207.00
2023-04-16T18:25:59.639Z,99210.13
2023-04-16T18:28:27.930Z,99211.06
2023-04-16T18:30:58.979Z,99215.69
2023-04-16T18:33:52.411Z,99219.09
2023-04-16T18:36:16.526Z,99217.03
2023-04-16T18:38:59.331Z,99219.13
2023-04-16T18:41:28.592Z,99221.72
2023-04-16T18:43:56.582Z,99219.44
2023-04-16T18:46:25.322Z,99220.94
2023-04-16T18:48:54.791Z,99228.91
2023-04-16T18:51:22.727Z,99228.16
2023-04-16T18:53:50.734Z,99225.94
2023-04-16T18:56:18.711Z,99227.81
2023-04-16T18:58:47.857Z,99223.91
2023-04-16T19:01:16.551Z,99230.81
2023-04-16T19:03:45.608Z,99234.56
2023-04-16T19:06:14.990Z,99235.25
2023-04-16T19:08:42.969Z,99232.13
2023-04-16T19:11:10.980Z,99236.72
2023-04-16T19:13:39.301Z,99227.56
2023-04-16T19:16:12.256Z,99230.47
2023-04-16T19:18:40.369Z,99230.03
2023-04-16T19:21:10.097Z,99227.94
2023-04-16T19:23:39.453Z,99226.72
2023-04-16T19:26:07.452Z,99242.63
2023-04-16T19:28:35.395Z,99242.28
2023-04-16T19:31:03.354Z,99239.00
2023-04-16T19:33:31.406Z,99243.03
2023-04-16T19:36:00.254Z,99239.94
2023-04-16T19:38:28.191Z,99238.31
2023-04-16T19:40:57.553Z,99244.59
2023-04-16T19:43:25.465Z,99254.00
2023-04-16T19:45:53.597Z,99258.81
2023-04-16T19:48:21.604Z,99254.03
2023-04-16T19:50:49.600Z,99260.09
2023-04-16T19:53:17.574Z,99263.44
2023-04-16T19:55:45.560Z,99256.56
2023-04-16T19:58:15.088Z,99259.09
2023-04-16T20:00:43.259Z,99252.03
2023-04-16T20:03:11.426Z,99261.00
2023-04-16T20:05:39.416Z,99255.16
2023-04-16T20:08:07.699Z,99253.50
2023-04-16T20:10:36.113Z,99251.44
2023-04-16T20:13:04.995Z,99255.22
2023-04-16T20:15:34.334Z,99246.72
2023-04-16T20:18:02.327Z,99253.16
2023-04-16T20:20:30.631Z,99249.47
2023-04-16T20:22:59.714Z,99253.19
2023-04-16T20:25:29.308Z,99240.34
2023-04-16T20:27:57.318Z,99243.28
2023-04-16T20:30:29.225Z,99245.16
2023-04-16T20:32:58.649Z,99246.59
2023-04-16T20:35:27.159Z,99251.16
2023-04-16T20:37:55.125Z,99254.91
2023-04-16T20:40:24.106Z,99249.91
2023-04-16T20:42:52.215Z,99249.72
2023-04-16T20:45:20.404Z,99253.25
2023-04-16T20:47:48.379Z,99249.91
2023-04-16T20:50:17.918Z,99257.38
2023-04-16T20:52:45.909Z,99254.00
2023-04-16T20:55:13.873Z,99259.22
2023-04-16T20:57:41.801Z,99262.53
2023-04-16T21:00:12.206Z,99254.44
2023-04-16T21:02:40.444Z,99259.41
2023-04-16T21:05:10.520Z,99250.72
2023-04-16T21:07:39.838Z,99255.69
2023-04-16T21:10:09.158Z,99255.06
2023-04-16T21:12:37.289Z,99254.00
2023-04-16T21:15:05.684Z,99255.28
2023-04-16T21:17:33.660Z,99252.59
2023-04-16T21:20:01.614Z,99252.78
2023-04-16T21:22:29.587Z,99253.63
2023-04-16T21:24:58.929Z,99224.13
2023-04-16T21:27:26.876Z,99248.19
2023-04-16T21:29:54.868Z,99248.59
2023-04-16T21:32:22.892Z,99240.69
2023-04-16T21:34:50.898Z,99239.00
2023-04-16T21:37:18.845Z,99246.44
2023-04-16T21:39:46.804Z,99239.81
2023-04-16T21:42:16.104Z,99251.38
2023-04-16T21:44:44.078Z,99241.41
2023-04-16T21:47:12.038Z,99237.69
2023-04-16T21:49:40.126Z,99241.03
2023-04-16T21:52:14.099Z,99236.88
2023-04-16T21:54:42.146Z,99230.66
2023-04-16T21:57:10.138Z,99237.41
2023-04-16T21:59:39.522Z,99234.09
2023-04-16T22:02:07.578Z,99233.28
2023-04-16T22:04:38.957Z,99240.47
2023-04-16T22:07:08.809Z,99233.84
2023-04-16T22:09:36.775Z,99229.06
2023-04-16T22:12:06.913Z,99223.88
2023-04-16T22:14:35.723Z,99227.38
2023-04-16T22:17:05.052Z,99223.88
2023-04-16T22:19:34.854Z,99229.47
2023-04-16T22:22:02.854Z,99225.72
2023-04-16T22:24:31.016Z,99217.66
2023-04-16T22:26:58.989Z,99217.03
2023-04-16T22:29:26.938Z,99222.16
2023-04-16T22:31:55.212Z,99215.53
2023-04-16T22:34:24.582Z,99225.88
2023-04-16T22:36:52.554Z,99220.03
2023-04-16T22:39:20.511Z,99223.69
2023-04-16T22:41:48.505Z,99222.03
2023-04-16T22:44:16.416Z,99225.75
2023-04-16T22:46:45.183Z,99223.44
2023-04-16T22:49:13.420Z,99219.09
2023-04-16T22:51:43.448Z,99223.88
2023-04-16T22:54:13.768Z,99223.22
2023-04-16T22:56:42.006Z,99222.34
2023-04-16T22:59:10.202Z,99219.03
2023-04-16T23:01:38.663Z,99219.81
2023-04-16T23:04:06.705Z,99221.91
2023-04-16T23:06:34.660Z,99226.84
2023-04-16T23:09:05.099Z,99224.78
2023-04-16T23:11:33.097Z,99223.75
2023-04-16T23:14:01.056Z,99220.69
2023-04-16T23:16:29.021Z,99213.66
2023-04-16T23:18:57.016Z,99213.25
2023-04-16T23:21:24.971Z,99208.66
2023-04-16T23:23:53.107Z,99213.53
2023-04-16T23:26:22.411Z,99215.16
2023-04-16T23:28:50.393Z,99212.66
2023-04-16T23:31:18.413Z,99209.34
2023-04-16T23:33:46.425Z,99206.47
2023-04-16T23:36:14.412Z,99218.44
2023-04-16T23:38:42.367Z,99211.00
2023-04-16T23:41:10.334Z,99206.47
2023-04-16T23:43:40.799Z,99211.00
2023-04-16T23:46:08.832Z,99208.31
2023-04-16T23:48:36.796Z,99207.09
2023-04-16T23:51:05.199Z,99202.41
2023-04-16T23:53:33.128Z,99198.34
2023-04-16T23:56:01.041Z,99203.75
2023-04-16T23:58:28.995Z,99196.53
